Latest Weather Observations for Essendon Airport

IDV60801

Issued at 5:35 pm EST Friday 29 August 2014 (issued every 30 minutes, with the page automatically refreshed every 10 minutes)

About weather observations | Map of weather stations | Latest weather observations for VIC | Other Formats
Station Details ID: 086038 Name: ESSENDON AIRPORT Lat: -37.73 Lon: 144.91 Height: 78.4 m
Data from the previous 72 hours. | See also: Recent months at Essendon Airport
Date/Time
EST
Temp
°C
App
Temp
°C
Dew
Point
Rel
Hum
%
Delta-T
°C
Wind Press
QNH
hPa
Press
MSL
hPa
Rain
since 9 am
mm
Dir
 
Spd
km/h
Gust
km/h
Spd
kts
Gust
kts
29/05:30pm 13.0 9.9 8.7 75 2.1 S 15 19 8 10 1027.4 1027.6 0.0
29/05:00pm 13.6 11.6 8.7 72 2.5 S 9 15 5 8 1027.4 1027.6 0.0
29/04:30pm 13.3 10.8 8.4 72 2.5 SE 11 17 6 9 1027.4 1027.6 0.0
29/04:00pm 13.8 11.3 8.4 70 2.7 SE 11 19 6 10 1027.3 1027.5 0.0
29/03:30pm 13.9 11.6 8.9 72 2.5 SSE 11 19 6 10 1027.3 1027.5 0.0
29/03:00pm 14.1 11.8 8.9 71 2.6 SSW 11 17 6 9 1027.3 1027.5 0.0
29/02:30pm 13.7 11.3 8.5 71 2.6 S 11 17 6 9 1027.6 1027.8 0.0
29/02:00pm 14.0 12.4 8.8 71 2.6 SSW 7 11 4 6 1027.8 1028.0 0.0
29/01:30pm 13.7 12.5 9.4 75 2.2 ESE 6 9 3 5 1028.1 1028.3 0.0
29/01:29pm 13.7 12.5 9.6 76 2.1 ESE 6 9 3 5 1028.1 1028.3 0.0
29/01:00pm 13.0 11.8 9.4 79 1.8 ESE 6 9 3 5 1028.6 1028.7 0.0
29/12:30pm 12.2 11.0 9.4 83 1.4 ESE 6 9 3 5 1029.1 1029.2 0.0
29/12:00pm 11.8 10.4 9.0 83 1.4 ENE 6 7 3 4 1029.5 1029.6 0.0
29/11:30am 11.8 10.9 9.2 84 1.3 SW 4 7 2 4 1029.8 1029.9 0.0
29/11:00am 11.6 11.2 9.9 89 0.9 SSW 2 6 1 3 1030.0 1030.1 0.0
29/10:30am 11.0 9.8 10.2 95 0.4 W 7 11 4 6 1030.0 1030.1 0.0
29/10:08am 10.7 9.7 10.2 97 0.3 W 6 7 3 4 1030.2 1030.3 0.0
29/10:00am 10.7 9.7 10.4 98 0.2 NNW 6 7 3 4 1030.1 1030.2 0.0
29/09:30am 10.1 8.8 9.9 99 0.1 NNW 7 9 4 5 1030.1 1030.2 0.0
29/09:00am 9.1 7.6 9.0 99 0.0 N 7 9 4 5 1030.0 1030.1 0.2
29/08:30am 8.6 6.9 8.5 99 0.0 N 7 9 4 5 1029.8 1029.9 0.2
29/08:00am 8.6 7.1 8.5 99 0.0 NNW 6 7 3 4 1029.6 1029.7 0.2
29/07:57am 8.5 7.0 8.4 99 0.0 NNW 6 7 3 4 1029.6 1029.7 0.2
29/07:30am 8.0 6.8 7.9 99 0.0 W 4 6 2 3 1029.5 1029.6 0.2
29/07:00am 7.8 5.9 7.7 99 0.0 W 7 7 4 4 1029.2 1029.3 0.2
29/06:30am 7.6 5.3 7.5 99 0.0 W 9 9 5 5 1028.7 1028.8 0.2
29/06:29am 7.6 5.3 7.5 99 0.0 W 9 9 5 5 1028.7 1028.8 0.2
29/06:27am 7.6 5.3 7.5 99 0.0 W 9 9 5 5 1028.7 1028.8 0.2
29/06:00am 7.8 5.9 7.7 99 0.0 NW 7 9 4 5 1028.1 1028.3 0.0
29/05:58am 7.9 6.1 7.8 99 0.0 NW 7 9 4 5 1028.1 1028.3 0.0
29/05:46am 7.8 6.1 7.7 99 0.0 NW 6 9 3 5 1028.1 1028.3 0.0
29/05:30am 8.2 7.8 8.1 99 0.0 CALM 0 0 0 0 1028.1 1028.3 0.0
29/05:00am 8.3 7.8 8.0 98 0.1 CALM 0 0 0 0 1028.0 1028.2 0.0
29/04:30am 8.1 7.6 7.8 98 0.1 CALM 0 0 0 0 1028.1 1028.3 0.0
29/04:00am 8.1 6.3 7.8 98 0.1 NW 7 9 4 5 1028.3 1028.5 0.0
29/03:30am 8.1 5.8 7.5 96 0.3 NW 9 9 5 5 1028.1 1028.3 0.0
29/03:24am 8.3 6.4 7.5 95 0.4 WNW 7 9 4 5 1028.1 1028.3 0.0
29/03:00am 8.4 6.5 7.5 94 0.4 WNW 7 9 4 5 1028.2 1028.4 0.0
29/02:52am 8.5 6.6 7.7 95 0.4 WNW 7 9 4 5 1028.2 1028.4 0.0
29/02:30am 7.9 5.5 7.0 94 0.4 W 9 9 5 5 1028.5 1028.6 0.0
29/02:08am 7.3 4.8 6.4 94 0.4 W 9 11 5 6 1028.3 1028.5 0.0
29/02:00am 8.2 5.9 7.4 95 0.4 WNW 9 9 5 5 1028.3 1028.5 0.0
29/01:30am 6.6 3.9 5.7 94 0.4 WNW 9 11 5 6 1028.3 1028.5 0.0
29/01:00am 7.5 5.1 6.8 95 0.3 NW 9 11 5 6 1028.3 1028.5 0.0
29/12:34am 7.4 4.5 6.5 94 0.4 NNW 11 11 6 6 1028.2 1028.4 0.0
29/12:30am 7.8 5.0 6.9 94 0.4 NNW 11 11 6 6 1028.2 1028.4 0.0
29/12:00am 8.7 6.4 7.6 93 0.5 WNW 9 9 5 5 1028.5 1028.6 0.0
 
Date/Time
EST
Temp
°C
App
Temp
°C
Dew
Point
Rel
Hum
%
Delta-T
°C
Wind Press
QNH
hPa
Press
MSL
hPa
Rain
since 9 am
mm
Dir
 
Spd
km/h
Gust
km/h
Spd
kts
Gust
kts
28/11:57pm 8.9 6.7 8.0 94 0.4 WNW 9 9 5 5 1028.6 1028.7 0.0
28/11:30pm 8.2 5.8 7.0 92 0.6 WNW 9 11 5 6 1028.5 1028.6 0.0
28/11:28pm 8.6 6.3 7.4 92 0.6 WNW 9 11 5 6 1028.5 1028.6 0.0
28/11:15pm 9.3 7.2 8.1 92 0.6 WNW 9 11 5 6 1028.6 1028.7 0.0
28/11:00pm 9.3 7.1 7.9 91 0.7 WNW 9 11 5 6 1028.6 1028.7 0.0
28/10:30pm 9.3 6.2 7.3 87 0.9 W 13 15 7 8 1028.8 1028.9 0.0
28/10:00pm 10.0 7.1 6.5 79 1.6 W 11 15 6 8 1028.8 1028.9 0.0
28/09:30pm 10.3 7.8 6.5 77 1.8 WNW 9 9 5 5 1028.7 1028.8 0.0
28/09:00pm 11.5 9.1 7.2 75 2.1 W 9 11 5 6 1028.6 1028.7 0.0
28/08:30pm 11.2 8.3 6.3 72 2.3 WSW 11 13 6 7 1028.5 1028.6 0.0
28/08:00pm 12.2 9.3 6.7 69 2.6 W 11 11 6 6 1028.0 1028.2 0.0
28/07:30pm 11.5 8.8 5.4 66 2.8 WSW 9 9 5 5 1027.7 1027.9 0.0
28/07:00pm 13.2 12.4 6.3 63 3.3 CALM 0 0 0 0 1027.4 1027.6 0.0
28/06:30pm 13.6 11.5 6.5 62 3.4 S 7 11 4 6 1027.4 1027.6 0.0
28/06:00pm 13.9 10.7 6.7 62 3.5 SSW 13 15 7 8 1027.2 1027.4 0.0
28/05:30pm 14.8 10.9 6.9 59 3.9 S 17 20 9 11 1026.9 1027.1 0.0
28/05:00pm 15.7 11.9 7.5 58 4.1 S 17 22 9 12 1026.7 1026.9 0.0
28/04:30pm 17.0 13.7 8.2 56 4.5 S 15 20 8 11 1026.5 1026.7 0.0
28/04:00pm 17.4 13.2 7.5 52 5.0 S 19 22 10 12 1026.4 1026.6 0.0
28/03:30pm 17.9 14.3 8.2 53 5.0 S 17 20 9 11 1026.4 1026.6 0.0
28/03:00pm 17.9 14.2 9.3 57 4.5 S 19 20 10 11 1026.4 1026.6 0.0
28/02:30pm 19.1 15.3 9.0 52 5.3 S 19 20 10 11 1026.5 1026.7 0.0
28/02:00pm 20.1 18.5 7.8 45 6.3 W 6 9 3 5 1026.5 1026.7 0.0
28/01:30pm 18.9 17.3 8.0 49 5.6 SSE 6 9 3 5 1026.7 1026.9 0.0
28/01:00pm 18.4 16.4 8.7 53 5.0 SSE 9 13 5 7 1027.2 1027.4 0.0
28/12:30pm 17.8 16.1 8.4 54 4.8 ESE 7 11 4 6 1027.5 1027.7 0.0
28/12:00pm 16.9 15.3 8.6 58 4.2 E 7 11 4 6 1028.0 1028.2 0.0
28/11:30am 15.8 14.3 8.3 61 3.8 S 6 11 3 6 1028.5 1028.6 0.0
28/11:00am 15.4 14.1 9.1 66 3.2 S 6 9 3 5 1028.8 1028.9 0.0
28/10:30am 14.0 12.6 9.0 72 2.5 SSW 6 9 3 5 1029.1 1029.2 0.0
28/10:00am 12.9 13.1 12.0 94 0.5 N 2 6 1 3 1029.3 1029.4 0.0
28/09:30am 10.9 10.0 10.7 99 0.1 NE 6 7 3 4 1029.4 1029.5 0.0
28/09:08am 8.5 6.8 8.4 99 0.0 NE 7 9 4 5 1029.5 1029.6 0.0
28/09:00am 8.5 6.8 8.4 99 0.0 ENE 7 9 4 5 1029.6 1029.7 0.2
28/08:43am 7.6 5.7 7.5 99 0.0 ENE 7 9 4 5 1029.6 1029.7 0.2
28/08:30am 7.4 5.4 7.3 99 0.0 E 7 9 4 5 1029.5 1029.6 0.2
28/08:14am 6.9 4.8 6.8 99 0.0 ENE 7 11 4 6 1029.6 1029.7 0.2
28/08:01am 6.3 3.7 6.2 99 0.0 NE 9 11 5 6 1029.5 1029.6 0.2
28/08:00am 6.5 4.0 6.4 99 0.0 NE 9 13 5 7 1029.5 1029.6 0.2
28/07:51am 6.3 3.7 6.2 99 0.0 NE 9 13 5 7 1029.5 1029.6 0.2
28/07:50am 6.3 3.7 6.2 99 0.0 NE 9 13 5 7 1029.5 1029.6 0.2
28/07:42am 6.7 4.2 6.6 99 0.0 NE 9 11 5 6 1029.5 1029.6 0.2
28/07:41am 6.6 4.1 6.5 99 0.0 NE 9 11 5 6 1029.5 1029.6 0.2
28/07:39am 6.7 4.2 6.6 99 0.0 NNE 9 11 5 6 1029.5 1029.6 0.2
28/07:38am 6.6 4.1 6.5 99 0.0 NNE 9 11 5 6 1029.5 1029.6 0.2
28/07:32am 6.6 4.1 6.5 99 0.0 NNE 9 11 5 6 1029.4 1029.5 0.2
28/07:31am 6.6 4.1 6.5 99 0.0 NNE 9 11 5 6 1029.4 1029.5 0.2
28/07:30am 6.6 4.1 6.5 99 0.0 NNE 9 11 5 6 1029.4 1029.5 0.2
28/07:24am 6.5 4.0 6.4 99 0.0 NNE 9 11 5 6 1029.3 1029.4 0.2
28/07:23am 6.5 4.0 6.4 99 0.0 NNE 9 11 5 6 1029.3 1029.4 0.2
28/07:22am 6.5 4.0 6.4 99 0.0 NNE 9 11 5 6 1029.3 1029.4 0.2
28/07:21am 6.5 4.0 6.4 99 0.0 NNE 9 11 5 6 1029.3 1029.4 0.2
28/07:20am 6.5 4.0 6.4 99 0.0 NNE 9 11 5 6 1029.3 1029.4 0.2
28/07:19am 6.5 4.0 6.4 99 0.0 NNE 9 11 5 6 1029.3 1029.4 0.2
28/07:18am 6.4 3.8 6.3 99 0.0 NNE 9 11 5 6 1029.3 1029.4 0.2
28/07:17am 6.4 3.8 6.3 99 0.0 NNE 9 11 5 6 1029.3 1029.4 0.2
28/07:16am 6.3 3.7 6.2 99 0.0 NNE 9 11 5 6 1029.3 1029.4 0.2
28/07:00am 6.3 3.7 6.2 99 0.0 NNE 9 11 5 6 1029.2 1029.3 0.2
28/06:30am 7.0 5.1 6.9 99 0.0 NE 6 9 3 5 1029.0 1029.1 0.2
28/06:00am 7.2 4.8 7.1 99 0.0 ENE 9 11 5 6 1028.7 1028.8 0.2
28/05:30am 7.6 5.3 7.5 99 0.0 NE 9 11 5 6 1028.5 1028.6 0.2
28/05:00am 7.7 5.8 7.6 99 0.0 N 7 9 4 5 1028.6 1028.7 0.2
28/04:30am 7.9 6.3 7.8 99 0.0 ENE 6 9 3 5 1028.5 1028.6 0.2
28/04:00am 8.0 7.1 7.9 99 0.0 ENE 2 6 1 3 1028.5 1028.6 0.2
28/03:30am 7.8 7.3 7.7 99 0.0 CALM 0 0 0 0 1028.5 1028.6 0.2
28/03:00am 7.8 6.1 7.7 99 0.0 N 6 7 3 4 1028.6 1028.7 0.2
28/02:30am 7.9 7.4 7.8 99 0.0 CALM 0 6 0 3 1028.8 1028.9 0.2
28/02:00am 7.9 6.3 7.8 99 0.0 N 6 6 3 3 1028.9 1029.0 0.2
28/01:33am 8.0 7.1 7.9 99 0.0 S 2 7 1 4 1028.8 1028.9 0.0
28/01:32am 8.0 7.1 7.9 99 0.0 S 2 7 1 4 1028.8 1028.9 0.0
28/01:30am 8.0 7.1 7.9 99 0.0 S 2 7 1 4 1028.8 1028.9 0.0
28/01:25am 8.1 7.3 8.0 99 0.0 S 2 6 1 3 1028.9 1029.0 0.0
28/01:24am 8.1 7.3 8.0 99 0.0 S 2 6 1 3 1028.9 1029.0 0.0
28/01:00am 8.1 6.3 8.0 99 0.0 W 7 9 4 5 1029.0 1029.1 0.0
28/12:30am 7.6 6.3 7.5 99 0.0 WNW 4 6 2 3 1029.0 1029.1 0.0
28/12:00am 8.3 6.6 8.2 99 0.0 WNW 7 9 4 5 1029.0 1029.1 0.0
 
Date/Time
EST
Temp
°C
App
Temp
°C
Dew
Point
Rel
Hum
%
Delta-T
°C
Wind Press
QNH
hPa
Press
MSL
hPa
Rain
since 9 am
mm
Dir
 
Spd
km/h
Gust
km/h
Spd
kts
Gust
kts
27/11:30pm 9.1 6.8 9.0 99 0.0 W 11 15 6 8 1029.1 1029.2 0.0
27/11:00pm 9.3 7.8 9.2 99 0.0 WNW 7 9 4 5 1029.0 1029.1 0.0
27/10:30pm 9.7 8.3 9.6 99 0.1 NW 7 11 4 6 1029.0 1029.1 0.0
27/10:00pm 9.9 8.8 9.8 99 0.0 WNW 6 9 3 5 1028.9 1029.0 0.0
27/09:30pm 10.1 9.7 9.9 99 0.1 W 2 7 1 4 1028.7 1028.8 0.0
27/09:00pm 10.1 8.8 9.9 99 0.1 WSW 7 11 4 6 1028.6 1028.7 0.0
27/08:30pm 9.9 7.8 9.6 98 0.2 WSW 11 13 6 7 1028.7 1028.8 0.0
27/08:00pm 9.7 7.5 9.4 98 0.1 SW 11 15 6 8 1028.3 1028.5 0.0
27/07:37pm 9.9 6.9 9.4 97 0.2 SW 15 20 8 11 1028.1 1028.3 0.0
27/07:32pm 9.9 7.3 9.4 97 0.2 SSW 13 20 7 11 1028.1 1028.3 0.0
27/07:30pm 9.8 7.2 9.2 96 0.3 SSW 13 17 7 9 1028.1 1028.3 0.0
27/07:24pm 9.1 7.0 8.3 95 0.4 SSW 9 13 5 7 1027.9 1028.1 0.0
27/07:11pm 9.7 8.1 8.8 94 0.4 S 7 9 4 5 1027.8 1028.0 0.0
27/07:09pm 10.0 8.5 9.2 95 0.4 S 7 9 4 5 1027.7 1027.9 0.0
27/07:04pm 10.1 8.6 9.2 94 0.4 SSW 7 11 4 6 1027.6 1027.8 0.0
27/07:00pm 10.1 8.2 9.2 94 0.4 SSW 9 13 5 7 1027.6 1027.8 0.0
27/06:46pm 10.8 8.3 9.7 93 0.6 S 13 15 7 8 1027.6 1027.8 0.0
27/06:30pm 11.4 9.0 10.0 91 0.7 S 13 17 7 9 1027.5 1027.7 0.0
27/06:00pm 12.4 9.2 9.8 84 1.3 S 17 20 9 11 1027.4 1027.6 0.0
27/05:30pm 15.0 11.7 8.0 63 3.5 S 15 17 8 9 1027.1 1027.3 0.0
27/05:00pm 16.4 12.9 7.3 55 4.5 S 15 19 8 10 1027.0 1027.2 0.0
27/04:30pm 17.2 13.6 6.7 50 5.2 S 15 20 8 11 1026.9 1027.1 0.0
27/04:00pm 17.7 14.6 7.2 50 5.2 S 13 17 7 9 1026.8 1027.0 0.0
27/03:30pm 17.7 13.8 7.2 50 5.3 S 17 20 9 11 1026.7 1026.9 0.0
27/03:00pm 18.0 14.2 7.4 50 5.3 S 17 22 9 12 1026.7 1026.9 0.0
27/02:30pm 18.2 14.7 8.7 54 4.9 S 17 22 9 12 1026.7 1026.9 0.0
27/02:00pm 18.6 15.4 8.3 51 5.3 S 15 22 8 12 1026.8 1027.0 0.0
27/01:30pm 17.9 15.2 9.0 56 4.6 S 13 17 7 9 1026.9 1027.1 0.0
27/01:00pm 18.2 15.8 10.1 59 4.3 SSW 13 20 7 11 1027.1 1027.3 0.0
27/12:30pm 18.2 15.9 10.3 60 4.2 SSW 13 19 7 10 1027.4 1027.6 0.0
27/12:00pm 18.0 16.2 10.9 63 3.8 SW 11 19 6 10 1027.6 1027.8 0.0
27/11:30am 17.2 15.7 10.6 65 3.5 SSW 9 13 5 7 1027.9 1028.1 0.0
27/11:00am 15.7 14.1 8.9 64 3.5 SW 7 13 4 7 1028.3 1028.5 0.0
27/10:30am 15.1 13.7 8.8 66 3.2 SSW 6 9 3 5 1028.3 1028.5 0.0
27/10:00am 14.9 14.8 9.3 69 2.9 CALM 0 4 0 2 1028.5 1028.6 0.0
27/09:30am 13.0 11.4 8.7 75 2.2 NNE 7 9 4 5 1028.0 1028.2 0.0
27/09:00am 12.2 12.3 10.1 87 1.1 CALM 0 0 0 0 1028.1 1028.3 0.0
27/08:30am 10.0 8.8 9.4 96 0.3 NW 6 7 3 4 1028.0 1028.2 0.0
27/08:00am 7.7 7.1 7.6 99 0.0 CALM 0 0 0 0 1027.9 1028.1 0.0
27/07:36am 5.6 3.4 5.3 98 0.1 SE 6 7 3 4 1027.8 1028.0 0.0
27/07:30am 6.0 3.9 5.7 98 0.1 SE 6 7 3 4 1027.7 1027.9 0.0
27/07:00am 3.9 2.5 3.6 98 0.1 CALM 0 2 0 1 1027.3 1027.5 0.0
27/06:50am 4.2 1.7 3.9 98 0.1 NNW 6 7 3 4 1027.2 1027.4 0.0
27/06:40am 4.8 1.9 4.5 98 0.1 N 9 9 5 5 1027.0 1027.2 0.0
27/06:30am 5.5 3.3 5.2 98 0.1 N 6 9 3 5 1026.9 1027.1 0.0
27/06:26am 4.6 2.2 4.3 98 0.1 N 6 7 3 4 1026.9 1027.1 0.0
27/06:00am 5.7 3.5 5.4 98 0.1 N 6 9 3 5 1026.8 1027.0 0.0
27/05:45am 4.9 2.6 4.6 98 0.1 NNW 6 9 3 5 1026.7 1026.9 0.0
27/05:30am 4.4 3.1 4.1 98 0.1 CALM 0 0 0 0 1026.8 1027.0 0.0
27/05:12am 4.9 3.7 4.6 98 0.1 CALM 0 6 0 3 1026.8 1027.0 0.0
27/05:00am 4.8 2.3 4.5 98 0.1 N 7 9 4 5 1026.7 1026.9 0.0
27/04:30am 5.5 2.7 5.2 98 0.1 WNW 9 11 5 6 1026.5 1026.7 0.0
27/04:26am 5.5 2.7 5.2 98 0.1 WNW 9 11 5 6 1026.5 1026.7 0.0
27/04:00am 5.2 2.7 4.9 98 0.1 SE 7 11 4 6 1026.4 1026.6 0.0
27/03:30am 5.8 3.5 5.5 98 0.1 NE 7 9 4 5 1026.1 1026.3 0.0
27/03:00am 6.4 5.5 6.1 98 0.1 CALM 0 6 0 3 1026.2 1026.4 0.0
27/02:46am 6.6 5.4 6.3 98 0.1 W 2 6 1 3 1026.3 1026.5 0.0
27/02:30am 7.2 5.2 6.9 98 0.1 WNW 7 7 4 4 1026.3 1026.5 0.0
27/02:00am 6.6 3.7 6.3 98 0.1 N 11 13 6 7 1026.2 1026.4 0.0
27/01:50am 7.4 4.6 7.1 98 0.1 N 11 13 6 7 1026.1 1026.3 0.0
27/01:30am 7.3 4.9 7.0 98 0.1 N 9 11 5 6 1026.2 1026.4 0.0
27/01:00am 8.0 5.8 7.7 98 0.1 N 9 11 5 6 1026.2 1026.4 0.0
27/12:30am 7.9 5.6 7.6 98 0.1 N 9 11 5 6 1026.2 1026.4 0.0
27/12:00am 8.7 6.2 8.4 98 0.1 N 11 11 6 6 1026.3 1026.5 0.0
 
Date/Time
EST
Temp
°C
App
Temp
°C
Dew
Point
Rel
Hum
%
Delta-T
°C
Wind Press
QNH
hPa
Press
MSL
hPa
Rain
since 9 am
mm
Dir
 
Spd
km/h
Gust
km/h
Spd
kts
Gust
kts
26/11:30pm 9.4 7.9 9.1 98 0.1 NNW 7 9 4 5 1026.4 1026.6 0.0
26/11:00pm 9.6 6.9 9.1 97 0.2 WNW 13 15 7 8 1026.3 1026.5 0.0
26/10:58pm 9.7 7.5 9.2 97 0.2 WNW 11 15 6 8 1026.3 1026.5 0.0
26/10:30pm 9.7 7.5 9.2 97 0.2 NW 11 13 6 7 1026.5 1026.7 0.0
26/10:06pm 9.7 8.2 9.1 96 0.3 NNW 7 11 4 6 1026.4 1026.6 0.0
26/10:00pm 10.3 8.6 9.7 96 0.3 NNW 9 11 5 6 1026.4 1026.6 0.0
26/09:52pm 10.4 8.7 9.8 96 0.3 WNW 9 11 5 6 1026.4 1026.6 0.0
26/09:30pm 9.8 7.9 9.0 95 0.4 NW 9 11 5 6 1026.4 1026.6 0.0
26/09:00pm 10.8 8.8 10.0 95 0.4 WNW 11 15 6 8 1026.4 1026.6 0.0
26/08:30pm 11.1 8.7 10.0 93 0.6 W 13 15 7 8 1026.2 1026.4 0.0
26/08:00pm 11.2 9.1 9.6 90 0.8 W 11 13 6 7 1026.1 1026.3 0.0
26/07:30pm 12.1 10.5 10.2 88 1.0 W 9 11 5 6 1026.0 1026.2 0.0
26/07:00pm 12.3 11.0 9.9 85 1.2 SW 7 9 4 5 1026.0 1026.2 0.0
26/06:30pm 12.3 10.8 9.3 82 1.5 SSW 7 11 4 6 1025.7 1025.9 0.0
26/06:00pm 13.3 10.9 9.9 80 1.7 S 13 17 7 9 1025.5 1025.7 0.0

Other Formats:

Comma delimited format used in spreadsheet applications
http://www.bom.gov.au/fwo/IDV60801/IDV60801.95866.axf

JavaScript Object Notation format (JSON) in row-major order
http://www.bom.gov.au/fwo/IDV60801/IDV60801.95866.json